createdAt,value
2022-11-19T00:01:26.234Z,2.30
2022-11-19T00:03:53.452Z,2.63
2022-11-19T00:06:22.276Z,2.80
2022-11-19T00:08:49.025Z,2.23
2022-11-19T00:11:38.237Z,3.13
2022-11-19T00:14:05.381Z,2.93
2022-11-19T00:16:32.303Z,3.00
2022-11-19T00:18:59.833Z,2.63
2022-11-19T00:21:26.271Z,1.97
2022-11-19T00:23:54.359Z,2.90
2022-11-19T00:26:21.450Z,3.47
2022-11-19T00:28:49.272Z,2.17
2022-11-19T00:31:16.966Z,2.87
2022-11-19T00:33:45.192Z,3.03
2022-11-19T00:36:15.216Z,2.93
2022-11-19T00:38:42.926Z,2.33
2022-11-19T00:41:10.453Z,2.43
2022-11-19T00:43:46.976Z,1.90
2022-11-19T00:46:19.025Z,1.70
2022-11-19T00:48:46.509Z,2.70
2022-11-19T00:51:16.258Z,3.37
2022-11-19T00:53:42.729Z,2.93
2022-11-19T00:56:13.171Z,2.07
2022-11-19T00:58:40.156Z,2.20
2022-11-19T01:01:09.976Z,2.80
2022-11-19T01:03:37.182Z,2.33
2022-11-19T01:06:03.965Z,2.43
2022-11-19T01:08:30.575Z,2.97
2022-11-19T01:11:20.151Z,2.53
2022-11-19T01:13:46.943Z,2.50
2022-11-19T01:16:36.716Z,2.27
2022-11-19T01:19:04.377Z,2.37
2022-11-19T01:21:33.158Z,2.40
2022-11-19T01:24:00.446Z,2.70
2022-11-19T01:26:28.112Z,2.87
2022-11-19T01:28:55.018Z,2.60
2022-11-19T01:31:24.405Z,2.33
2022-11-19T01:33:50.863Z,2.00
2022-11-19T01:36:23.344Z,2.27
2022-11-19T01:38:54.026Z,3.20
2022-11-19T01:41:22.463Z,2.40
2022-11-19T01:44:00.843Z,2.37
2022-11-19T01:46:32.216Z,3.67
2022-11-19T01:49:01.942Z,2.40
2022-11-19T01:51:35.994Z,2.40
2022-11-19T01:54:15.043Z,2.40
2022-11-19T01:56:41.458Z,2.87
2022-11-19T01:59:11.648Z,2.57
2022-11-19T02:01:38.118Z,2.77
2022-11-19T02:04:06.343Z,2.20
2022-11-19T02:06:33.927Z,3.00
2022-11-19T02:09:04.964Z,2.33
2022-11-19T02:11:37.715Z,2.03
2022-11-19T02:14:32.067Z,1.80
2022-11-19T02:17:22.924Z,3.17
2022-11-19T02:20:27.454Z,2.37
2022-11-19T02:23:09.203Z,2.30
2022-11-19T02:25:38.972Z,2.57
2022-11-19T02:28:14.938Z,2.50
2022-11-19T02:30:49.093Z,2.53
2022-11-19T02:33:36.799Z,2.30
2022-11-19T02:36:33.983Z,2.80
2022-11-19T02:39:08.207Z,2.53
2022-11-19T02:41:41.011Z,1.90
2022-11-19T02:44:36.474Z,1.77
2022-11-19T02:47:10.540Z,2.43
2022-11-19T02:49:42.895Z,2.33
2022-11-19T02:52:09.539Z,2.27
2022-11-19T02:54:35.980Z,2.40
2022-11-19T02:57:03.366Z,3.20
2022-11-19T02:59:54.671Z,2.50
2022-11-19T03:02:40.614Z,3.77
2022-11-19T03:05:10.985Z,2.33
2022-11-19T03:07:37.754Z,2.93
2022-11-19T03:10:07.161Z,2.57
2022-11-19T03:13:22.033Z,2.07
2022-11-19T03:16:08.609Z,3.50
2022-11-19T03:18:40.636Z,2.43
2022-11-19T03:21:23.784Z,1.80
2022-11-19T03:24:10.267Z,3.03
2022-11-19T03:26:52.879Z,2.37
2022-11-19T03:29:19.921Z,3.10
2022-11-19T03:31:51.657Z,3.60
2022-11-19T03:34:20.680Z,2.67
2022-11-19T03:36:49.583Z,1.97
2022-11-19T03:39:18.471Z,2.17
2022-11-19T03:41:47.674Z,2.90
2022-11-19T03:44:17.077Z,2.67
2022-11-19T03:46:46.069Z,1.90
2022-11-19T03:49:13.420Z,2.47
2022-11-19T03:51:49.978Z,2.80
2022-11-19T03:54:16.759Z,3.60
2022-11-19T03:56:45.122Z,1.83
2022-11-19T03:59:12.797Z,3.07
2022-11-19T04:01:39.881Z,2.83
2022-11-19T04:04:25.168Z,2.00
2022-11-19T04:06:51.796Z,2.33
2022-11-19T04:09:18.821Z,3.40
2022-11-19T04:14:11.065Z,2.20
2022-11-19T04:16:38.202Z,2.77
2022-11-19T04:19:04.714Z,2.47
2022-11-19T04:21:35.331Z,2.50
2022-11-19T04:24:01.805Z,2.43
2022-11-19T04:26:28.210Z,2.17
2022-11-19T04:28:54.686Z,1.97
2022-11-19T04:31:21.159Z,1.47
2022-11-19T04:33:47.770Z,3.00
2022-11-19T04:36:14.606Z,1.50
2022-11-19T04:38:41.048Z,2.67
2022-11-19T04:41:07.494Z,1.90
2022-11-19T04:43:34.407Z,2.00
2022-11-19T04:46:00.816Z,3.60
2022-11-19T04:48:27.220Z,1.97
2022-11-19T04:50:53.661Z,2.43
2022-11-19T04:53:20.452Z,2.67
2022-11-19T04:55:46.923Z,2.73
2022-11-19T04:58:17.406Z,2.40
2022-11-19T05:00:43.876Z,2.03
2022-11-19T05:03:10.357Z,3.07
2022-11-19T05:05:37.007Z,2.10
2022-11-19T05:08:03.526Z,2.00
2022-11-19T05:10:30.259Z,2.90
2022-11-19T05:12:56.818Z,2.40
2022-11-19T05:15:23.640Z,2.23
2022-11-19T05:17:50.045Z,2.50
2022-11-19T05:20:16.906Z,2.40
2022-11-19T05:22:43.374Z,3.57
2022-11-19T05:25:10.920Z,2.97
2022-11-19T05:27:37.759Z,2.43
2022-11-19T05:30:04.917Z,2.03
2022-11-19T05:32:31.403Z,3.80
2022-11-19T05:34:57.871Z,2.57
2022-11-19T05:37:24.294Z,2.60
2022-11-19T05:39:50.920Z,3.00
2022-11-19T05:42:17.347Z,3.20
2022-11-19T05:44:43.839Z,3.37
2022-11-19T05:47:10.489Z,2.83
2022-11-19T05:49:36.936Z,2.47
2022-11-19T05:52:06.657Z,2.60
2022-11-19T05:54:33.136Z,2.07
2022-11-19T05:56:59.842Z,2.63
2022-11-19T05:59:26.389Z,2.40
2022-11-19T06:01:52.984Z,1.60
2022-11-19T06:04:19.528Z,3.00
2022-11-19T06:06:45.992Z,2.13
2022-11-19T06:09:12.430Z,2.30
2022-11-19T06:11:47.887Z,1.83
2022-11-19T06:14:15.124Z,2.73
2022-11-19T06:16:46.730Z,2.30
2022-11-19T06:19:13.258Z,3.13
2022-11-19T06:21:39.903Z,2.17
2022-11-19T06:24:06.784Z,3.33
2022-11-19T06:26:33.538Z,1.70
2022-11-19T06:29:00.256Z,1.83
2022-11-19T06:31:27.197Z,2.70
2022-11-19T06:33:53.994Z,3.73
2022-11-19T06:36:21.117Z,3.40
2022-11-19T06:38:48.949Z,3.00
2022-11-19T06:41:15.641Z,2.20
2022-11-19T06:43:43.040Z,3.10
2022-11-19T06:46:10.439Z,3.10
2022-11-19T06:48:37.365Z,2.60
2022-11-19T06:51:04.414Z,1.90
2022-11-19T06:53:31.274Z,3.63
2022-11-19T06:55:58.430Z,2.20
2022-11-19T06:58:30.360Z,2.07
2022-11-19T07:00:57.114Z,2.77
2022-11-19T07:03:23.951Z,2.33
2022-11-19T07:05:55.121Z,2.80
2022-11-19T07:08:21.621Z,2.47
2022-11-19T07:10:48.155Z,4.00
2022-11-19T07:13:14.698Z,2.67
2022-11-19T07:15:41.602Z,2.67
2022-11-19T07:18:08.119Z,2.73
2022-11-19T07:20:34.684Z,2.97
2022-11-19T07:23:01.274Z,2.37
2022-11-19T07:25:28.249Z,3.43
2022-11-19T07:27:54.685Z,3.43
2022-11-19T07:30:21.624Z,2.73
2022-11-19T07:32:50.278Z,3.20
2022-11-19T07:35:16.819Z,3.67
2022-11-19T07:37:45.635Z,3.73
2022-11-19T07:40:14.456Z,4.60
2022-11-19T07:42:50.167Z,4.53
2022-11-19T07:45:18.657Z,4.40
2022-11-19T07:47:45.302Z,5.70
2022-11-19T07:50:12.271Z,6.00
2022-11-19T07:52:38.990Z,7.50
2022-11-19T07:55:06.525Z,5.90
2022-11-19T07:57:33.240Z,7.80
2022-11-19T08:00:01.200Z,5.70
2022-11-19T08:02:28.039Z,6.97
2022-11-19T08:08:36.014Z,10.13
2022-11-19T08:11:07.275Z,9.67
2022-11-19T08:13:34.717Z,6.97
2022-11-19T08:16:02.533Z,5.27
2022-11-19T08:18:31.363Z,5.63
2022-11-19T08:21:09.935Z,4.33
2022-11-19T08:23:38.240Z,4.37
2022-11-19T08:26:11.303Z,4.83
2022-11-19T08:28:37.783Z,4.87
2022-11-19T08:31:08.505Z,4.90
2022-11-19T08:33:36.390Z,4.37
2022-11-19T08:36:03.082Z,5.37
2022-11-19T08:38:31.464Z,4.90
2022-11-19T08:41:19.937Z,4.60
2022-11-19T08:43:46.863Z,4.57
2022-11-19T08:46:13.962Z,4.70
2022-11-19T08:48:40.899Z,4.77
2022-11-19T08:51:17.294Z,4.50
2022-11-19T08:53:47.260Z,5.23
2022-11-19T08:56:17.932Z,4.83
2022-11-19T08:58:47.249Z,7.93
2022-11-19T09:01:15.864Z,5.27
2022-11-19T09:03:43.584Z,4.40
2022-11-19T09:06:10.165Z,4.67
2022-11-19T09:08:36.682Z,5.40
2022-11-19T09:11:12.666Z,4.97
2022-11-19T09:13:39.797Z,4.57
2022-11-19T09:16:06.853Z,4.87
2022-11-19T09:18:33.506Z,5.37
2022-11-19T09:21:00.217Z,4.43
2022-11-19T09:23:27.942Z,5.30
2022-11-19T09:25:59.622Z,4.53
2022-11-19T09:28:27.470Z,4.57
2022-11-19T09:31:01.714Z,5.50
2022-11-19T09:33:30.098Z,4.85
2022-11-19T09:35:56.551Z,5.23
2022-11-19T09:38:23.002Z,6.20
2022-11-19T09:40:51.860Z,5.70
2022-11-19T09:43:28.601Z,5.80
2022-11-19T09:46:17.869Z,5.90
2022-11-19T09:48:45.622Z,6.80
2022-11-19T09:51:15.952Z,5.37
2022-11-19T09:53:46.971Z,6.47
2022-11-19T09:56:18.388Z,4.53
2022-11-19T09:58:45.328Z,4.87
2022-11-19T10:01:17.313Z,5.87
2022-11-19T10:03:47.464Z,4.87
2022-11-19T10:06:44.904Z,6.90
2022-11-19T10:09:20.668Z,5.40
2022-11-19T10:11:57.963Z,5.10
2022-11-19T10:14:46.594Z,5.60
2022-11-19T10:17:37.954Z,5.87
2022-11-19T10:20:13.343Z,6.53
2022-11-19T10:22:50.659Z,6.20
2022-11-19T10:25:27.343Z,5.90
2022-11-19T10:28:00.289Z,6.10
2022-11-19T10:30:29.497Z,5.20
2022-11-19T10:33:18.351Z,5.87
2022-11-19T10:35:49.887Z,5.13
2022-11-19T10:38:26.619Z,5.80
2022-11-19T10:41:02.198Z,5.27
2022-11-19T10:43:38.101Z,4.90
2022-11-19T10:46:06.565Z,5.37
2022-11-19T10:49:06.627Z,6.23
2022-11-19T10:51:41.414Z,5.50
2022-11-19T10:54:24.773Z,5.47
2022-11-19T10:56:52.326Z,6.10
2022-11-19T10:59:21.705Z,5.50
2022-11-19T11:02:27.612Z,4.77
2022-11-19T11:05:13.659Z,6.10
2022-11-19T11:07:49.827Z,4.73
2022-11-19T11:10:37.007Z,4.97
2022-11-19T11:13:34.116Z,4.97
2022-11-19T11:16:09.043Z,5.47
2022-11-19T11:18:42.342Z,5.47
2022-11-19T11:21:18.504Z,4.97
2022-11-19T11:23:51.818Z,5.00
2022-11-19T11:26:21.847Z,4.60
2022-11-19T11:29:17.431Z,4.57
2022-11-19T11:31:46.201Z,4.03
2022-11-19T11:34:36.151Z,4.17
2022-11-19T11:37:04.334Z,4.07
2022-11-19T11:39:40.782Z,4.43
2022-11-19T11:42:17.453Z,3.43
2022-11-19T11:44:50.759Z,4.60
2022-11-19T11:47:19.646Z,4.13
2022-11-19T11:49:48.470Z,4.33
2022-11-19T11:52:31.333Z,3.23
2022-11-19T11:55:04.284Z,2.87
2022-11-19T11:57:37.690Z,2.90
2022-11-19T12:00:31.851Z,3.13
2022-11-19T12:03:10.973Z,3.00
2022-11-19T12:05:46.610Z,2.60
2022-11-19T12:08:38.960Z,2.50
2022-11-19T12:11:17.596Z,2.33
2022-11-19T12:13:53.465Z,2.37
2022-11-19T12:16:38.856Z,1.97
2022-11-19T12:19:17.873Z,2.50
2022-11-19T12:21:53.350Z,2.27
2022-11-19T12:24:46.158Z,3.03
2022-11-19T12:27:51.317Z,3.00
2022-11-19T12:30:23.506Z,2.50
2022-11-19T12:33:05.159Z,2.67
2022-11-19T12:35:53.361Z,3.10
2022-11-19T12:38:35.332Z,2.87
2022-11-19T12:41:08.000Z,3.43
2022-11-19T12:43:34.402Z,3.50
2022-11-19T12:46:33.369Z,2.97
2022-11-19T12:49:12.170Z,2.60
2022-11-19T12:52:00.676Z,2.47
2022-11-19T12:54:47.901Z,3.07
2022-11-19T12:57:42.336Z,2.70
2022-11-19T13:00:15.474Z,3.97
2022-11-19T13:02:53.536Z,2.83
2022-11-19T13:05:24.352Z,3.13
2022-11-19T13:07:58.665Z,2.37
2022-11-19T13:10:29.015Z,3.10
2022-11-19T13:12:57.780Z,2.20
2022-11-19T13:15:31.767Z,2.77
2022-11-19T13:18:00.243Z,3.07
2022-11-19T13:20:45.706Z,2.80
2022-11-19T13:23:21.129Z,2.50
2022-11-19T13:26:18.634Z,1.93
2022-11-19T13:28:54.351Z,2.33
2022-11-19T13:31:37.953Z,2.40
2022-11-19T13:34:16.312Z,2.70
2022-11-19T13:36:46.962Z,2.93
2022-11-19T13:39:21.799Z,2.63
2022-11-19T13:42:09.253Z,3.70
2022-11-19T13:44:41.040Z,3.63
2022-11-19T13:47:13.234Z,3.40
2022-11-19T13:49:46.053Z,3.10
2022-11-19T13:52:19.327Z,3.37
2022-11-19T13:54:49.455Z,2.50
2022-11-19T13:57:25.112Z,2.63
2022-11-19T14:00:00.283Z,2.83
2022-11-19T14:03:08.648Z,3.13
2022-11-19T14:06:06.106Z,2.70
2022-11-19T14:08:52.891Z,3.47
2022-11-19T14:11:40.750Z,3.00
2022-11-19T14:14:44.117Z,3.00
2022-11-19T14:17:54.570Z,2.80
2022-11-19T14:20:58.093Z,2.43
2022-11-19T14:24:08.329Z,3.07
2022-11-19T14:26:40.877Z,2.80
2022-11-19T14:29:26.078Z,3.00
2022-11-19T14:32:06.247Z,2.23
2022-11-19T14:34:34.393Z,2.37
2022-11-19T14:37:03.056Z,2.40
2022-11-19T14:39:31.994Z,3.03
2022-11-19T14:42:18.267Z,2.30
2022-11-19T14:44:45.991Z,3.13
2022-11-19T14:47:31.805Z,2.67
2022-11-19T14:50:07.665Z,3.50
2022-11-19T14:52:37.759Z,2.50
2022-11-19T14:55:19.285Z,2.83
2022-11-19T14:57:57.244Z,2.90
2022-11-19T15:00:40.768Z,2.80
2022-11-19T15:03:13.326Z,4.37
2022-11-19T15:05:41.578Z,2.83
2022-11-19T15:08:17.266Z,2.70
2022-11-19T15:11:02.401Z,3.37
2022-11-19T15:13:30.903Z,2.90
2022-11-19T15:16:11.344Z,3.17
2022-11-19T15:18:40.903Z,2.63
2022-11-19T15:21:38.210Z,2.70
2022-11-19T15:24:21.857Z,2.77
2022-11-19T15:27:03.475Z,2.47
2022-11-19T15:30:07.512Z,2.73
2022-11-19T15:33:01.676Z,2.37
2022-11-19T15:36:06.896Z,3.33
2022-11-19T15:38:39.868Z,2.80
2022-11-19T15:41:07.292Z,2.27
2022-11-19T15:43:43.918Z,2.10
2022-11-19T15:46:18.057Z,2.20
2022-11-19T15:49:06.519Z,2.93
2022-11-19T15:51:41.616Z,3.20
2022-11-19T15:54:11.545Z,2.07
2022-11-19T15:56:39.974Z,2.87
2022-11-19T16:02:04.199Z,2.47
2022-11-19T16:04:38.120Z,3.10
2022-11-19T16:07:16.089Z,3.17
2022-11-19T16:10:21.007Z,2.47
2022-11-19T16:13:51.906Z,2.67
2022-11-19T16:16:45.173Z,2.50
2022-11-19T16:19:15.512Z,2.90
2022-11-19T16:21:54.148Z,3.37
2022-11-19T16:24:39.650Z,3.27
2022-11-19T16:27:10.709Z,2.40
2022-11-19T16:29:42.219Z,3.27
2022-11-19T16:32:08.816Z,3.00
2022-11-19T16:34:37.015Z,3.30
2022-11-19T16:37:03.639Z,3.47
2022-11-19T16:39:31.574Z,3.33
2022-11-19T16:42:18.472Z,2.50
2022-11-19T16:44:44.903Z,2.33
2022-11-19T16:47:28.562Z,2.63
2022-11-19T16:49:59.108Z,3.57
2022-11-19T16:52:36.353Z,3.23
2022-11-19T16:55:28.880Z,3.17
2022-11-19T16:57:58.891Z,3.63
2022-11-19T17:00:31.055Z,2.60
2022-11-19T17:02:58.095Z,3.97
2022-11-19T17:05:28.562Z,2.97
2022-11-19T17:08:23.010Z,4.27
2022-11-19T17:10:49.515Z,3.07
2022-11-19T17:13:19.200Z,3.23
2022-11-19T17:15:50.178Z,2.97
2022-11-19T17:18:28.374Z,3.63
2022-11-19T17:21:01.846Z,6.33
2022-11-19T17:23:31.260Z,3.73
2022-11-19T17:25:59.887Z,3.53
2022-11-19T17:28:26.687Z,3.83
2022-11-19T17:30:53.999Z,4.13
2022-11-19T17:33:22.370Z,3.57
2022-11-19T17:35:49.260Z,3.70
2022-11-19T17:38:23.760Z,3.60
2022-11-19T17:41:12.304Z,4.67
2022-11-19T17:43:58.495Z,4.03
2022-11-19T17:46:27.457Z,4.33
2022-11-19T17:48:54.242Z,3.33
2022-11-19T17:51:25.214Z,3.90
2022-11-19T17:53:52.756Z,3.93
2022-11-19T17:56:26.537Z,3.83
2022-11-19T17:58:53.324Z,3.87
2022-11-19T18:01:20.018Z,4.63
2022-11-19T18:03:47.225Z,4.00
2022-11-19T18:06:15.358Z,4.30
2022-11-19T18:08:42.392Z,4.50
2022-11-19T18:11:14.302Z,2.80
2022-11-19T18:13:40.873Z,3.60
2022-11-19T18:16:16.725Z,4.10
2022-11-19T18:18:43.303Z,4.53
2022-11-19T18:21:15.168Z,3.60
2022-11-19T18:23:42.829Z,3.13
2022-11-19T18:26:13.501Z,4.53
2022-11-19T18:28:43.694Z,4.60
2022-11-19T18:31:27.055Z,4.00
2022-11-19T18:33:54.569Z,4.83
2022-11-19T18:36:21.332Z,3.70
2022-11-19T18:38:48.355Z,4.43
2022-11-19T18:41:15.973Z,4.63
2022-11-19T18:44:00.966Z,4.10
2022-11-19T18:46:27.646Z,3.90
2022-11-19T18:48:54.077Z,3.67
2022-11-19T18:51:22.902Z,3.20
2022-11-19T18:53:49.353Z,4.57
2022-11-19T18:56:17.031Z,4.57
2022-11-19T18:58:43.482Z,3.27
2022-11-19T19:01:11.031Z,3.87
2022-11-19T19:03:37.526Z,4.57
2022-11-19T19:06:06.986Z,4.37
2022-11-19T19:08:33.942Z,4.07
2022-11-19T19:11:19.019Z,3.77
2022-11-19T19:13:46.026Z,3.10
2022-11-19T19:16:13.233Z,6.13
2022-11-19T19:18:40.055Z,3.80
2022-11-19T19:21:13.677Z,3.40
2022-11-19T19:23:41.378Z,4.03
2022-11-19T19:26:09.028Z,4.10
2022-11-19T19:28:36.091Z,4.40
2022-11-19T19:31:02.790Z,3.47
2022-11-19T19:33:30.048Z,4.77
2022-11-19T19:35:57.099Z,3.57
2022-11-19T19:38:24.299Z,4.60
2022-11-19T19:40:51.208Z,4.70
2022-11-19T19:43:17.713Z,3.83
2022-11-19T19:45:44.321Z,4.30
2022-11-19T19:48:10.803Z,3.47
2022-11-19T19:50:37.250Z,4.80
2022-11-19T19:53:03.928Z,4.93
2022-11-19T19:55:30.410Z,4.07
2022-11-19T19:57:56.862Z,3.83
2022-11-19T20:00:23.719Z,5.67
2022-11-19T20:02:50.293Z,4.03
2022-11-19T20:05:16.807Z,4.20
2022-11-19T20:07:43.352Z,5.07
2022-11-19T20:10:10.005Z,4.20
2022-11-19T20:12:55.021Z,4.87
2022-11-19T20:15:21.487Z,4.33
2022-11-19T20:17:48.195Z,4.93
2022-11-19T20:20:15.820Z,4.60
2022-11-19T20:22:42.518Z,5.57
2022-11-19T20:25:08.986Z,6.90
2022-11-19T20:27:35.778Z,4.97
2022-11-19T20:30:03.446Z,4.50
2022-11-19T20:32:30.223Z,6.03
2022-11-19T20:34:56.789Z,5.67
2022-11-19T20:37:23.723Z,4.60
2022-11-19T20:39:50.297Z,3.70
2022-11-19T20:42:35.313Z,4.70
2022-11-19T20:45:02.015Z,3.90
2022-11-19T20:47:28.664Z,4.87
2022-11-19T20:49:55.143Z,3.60
2022-11-19T20:52:22.910Z,4.57
2022-11-19T20:54:51.116Z,5.83
2022-11-19T20:57:18.825Z,4.00
2022-11-19T20:59:45.297Z,3.33
2022-11-19T21:02:12.003Z,5.67
2022-11-19T21:04:38.527Z,4.67
2022-11-19T21:07:05.750Z,4.00
2022-11-19T21:09:32.268Z,4.90
2022-11-19T21:11:58.696Z,3.63
2022-11-19T21:14:25.246Z,4.73
2022-11-19T21:16:51.812Z,4.30
2022-11-19T21:19:18.746Z,5.07
2022-11-19T21:21:45.767Z,4.63
2022-11-19T21:24:12.612Z,4.47
2022-11-19T21:26:39.492Z,5.57
2022-11-19T21:29:06.056Z,4.83
2022-11-19T21:31:38.882Z,4.23
2022-11-19T21:34:11.454Z,5.60
2022-11-19T21:36:39.022Z,4.67
2022-11-19T21:39:06.342Z,3.50
2022-11-19T21:41:35.153Z,5.23
2022-11-19T21:44:02.630Z,5.23
2022-11-19T21:46:29.090Z,4.27
2022-11-19T21:48:56.067Z,4.73
2022-11-19T21:51:24.954Z,5.33
2022-11-19T21:53:58.534Z,4.80
2022-11-19T21:56:26.841Z,3.60
2022-11-19T21:58:53.420Z,4.00
2022-11-19T22:01:20.120Z,4.30
2022-11-19T22:03:46.971Z,3.90
2022-11-19T22:06:13.551Z,4.47
2022-11-19T22:08:41.296Z,4.80
2022-11-19T22:11:27.412Z,4.83
2022-11-19T22:13:54.692Z,4.90
2022-11-19T22:16:21.950Z,4.97
2022-11-19T22:18:48.774Z,4.07
2022-11-19T22:21:15.356Z,3.80
2022-11-19T22:23:41.909Z,3.90
2022-11-19T22:26:09.982Z,3.10
2022-11-19T22:28:36.750Z,4.43
2022-11-19T22:31:03.415Z,3.53
2022-11-19T22:33:31.885Z,5.73
2022-11-19T22:36:06.436Z,3.47
2022-11-19T22:38:35.785Z,4.00
2022-11-19T22:41:06.233Z,3.63
2022-11-19T22:43:34.696Z,3.70
2022-11-19T22:46:01.613Z,4.00
2022-11-19T22:48:32.275Z,4.00
2022-11-19T22:50:59.076Z,4.27
2022-11-19T22:53:25.614Z,3.87
2022-11-19T22:55:52.142Z,4.83
2022-11-19T22:58:18.676Z,5.37
2022-11-19T23:00:47.723Z,3.93
2022-11-19T23:03:14.599Z,4.87
2022-11-19T23:05:41.389Z,3.27
2022-11-19T23:08:09.883Z,3.43
2022-11-19T23:10:36.469Z,5.03
2022-11-19T23:13:22.163Z,2.67
2022-11-19T23:16:03.788Z,3.27
2022-11-19T23:18:32.671Z,4.43
2022-11-19T23:21:01.783Z,2.83
2022-11-19T23:23:28.473Z,4.13
2022-11-19T23:25:56.628Z,3.90
2022-11-19T23:28:24.360Z,4.90
2022-11-19T23:30:50.869Z,4.37
2022-11-19T23:33:17.443Z,4.63
2022-11-19T23:35:43.887Z,4.60
2022-11-19T23:38:10.388Z,4.20
2022-11-19T23:40:37.202Z,4.93
2022-11-19T23:43:04.423Z,4.33
2022-11-19T23:45:30.883Z,5.37
2022-11-19T23:47:57.290Z,4.63
2022-11-19T23:50:23.767Z,3.97
2022-11-19T23:52:50.295Z,3.87
2022-11-19T23:55:17.032Z,4.43
2022-11-19T23:57:43.555Z,5.13
